Etusivu
METAR-TAF:

METAR-TAF

Lentoasemat :

Princeton Municipal Airport

Princeton, Minnesota, Yhdysvallat

Leveyspiiri: 45-33N, Pituuspiiri: 093-36W, korkeus merenpinnasta: 298 m

Tämänhetkinen sää

Tämä raportti tehtiin 22 minuuttia sitten, kello 19.35 UTC
Tuuli 5 kn kaakosta
Lämpötila 13°C
Kosteus 100%
Ilmanpaine 1009 hPa
Näkyvyys: 8.0 km
Hajonneita pilviä 600 ft:n korkeudessa
Pilvistä 1200 ft:n korkeudessa
heikkoa tihkusadetta

METAR: KPNM 241935Z AUTO 13005KT 5SM -DZ BKN006 OVC012 13/13 A2979 RMK AO2

Aika: 14:57 (19:57 UTC)


TAF: puuttuu

Säähavainnot ja -ennusteet yli 4000 lentoasemalta (METAR- ja TAF-raportit).

Käytössä olevat sääasemat on merkitty karttaan keltaisilla ja punaisilla pisteillä.

Aseta hiiri pisteen päälle nähdäksesi sääaseman nimen.

Klikkaa sitten nähdäksesi säähavainnot ja -ennusteet.

Kartan vaihtaminen: klikkaa mustalla rastilla varustettuja vihreitä pisteitä, niin voit zoomata sisään; viivalla varustettua vihreää pistettä, niin voit zoomata ulos tai vihreitä nuolia, niin pääset viereisille kartoille.


METAR-TAF: